CCA130 RKPK-ZBAA
Flight info
| Callsign | CCA130 |
|---|---|
| Flight time | 2h 5m |
| Altitude | 40000 |
| Route | ULSUK3 KALOD Y782 BITUX Z53 BASEM Y685 SEL Y697 AGAVO/K0878S1220 A591 IKEKA W4 HCH W200 DOVIV W55 DUMAP DUMAP9Z |
| Aircraft | B772/H-SDE2E3FGHIJ5LORVWXY/LB1D1 |
Departure
| Time | 2026-05-06 07:52 |
|---|---|
| Airport | Gimhae International Airport (RKPK) |
Arrival
| Time | 2026-05-06 09:57 |
|---|---|
| Airport | Beijing Capital International Airport (ZBAA) |
| Time | Latitude | Longitude | Altitude | Speed | Heading |
|---|---|---|---|---|---|
| 2026-05-06 07:23 | 35.17319 | 128.94555 | 28 ft | 0 kts | 115° |
| 2026-05-06 07:24 | 35.17321 | 128.94552 | 28 ft | 0 kts | 115° |
| 2026-05-06 07:41 | 35.17329 | 128.94529 | 26 ft | 3 kts | 115° |
| 2026-05-06 07:41 | 35.17337 | 128.94508 | 27 ft | 3 kts | 99° |
| 2026-05-06 07:41 | 35.17338 | 128.94490 | 25 ft | 3 kts | 56° |
| 2026-05-06 07:41 | 35.17325 | 128.94476 | 24 ft | 3 kts | 20° |
| 2026-05-06 07:42 | 35.17304 | 128.94469 | 26 ft | 3 kts | 4° |
| 2026-05-06 07:42 | 35.17284 | 128.94469 | 26 ft | 1 kts | 354° |
| 2026-05-06 07:45 | 35.17302 | 128.94466 | 26 ft | 4 kts | 354° |
| 2026-05-06 07:46 | 35.17331 | 128.94463 | 26 ft | 4 kts | 354° |
| 2026-05-06 07:46 | 35.17366 | 128.94458 | 28 ft | 6 kts | 354° |
| 2026-05-06 07:46 | 35.17406 | 128.94453 | 28 ft | 6 kts | 354° |
| 2026-05-06 07:46 | 35.17450 | 128.94445 | 26 ft | 7 kts | 338° |
| 2026-05-06 07:47 | 35.17469 | 128.94388 | 28 ft | 8 kts | 271° |
| 2026-05-06 07:47 | 35.17465 | 128.94324 | 28 ft | 8 kts | 264° |
| 2026-05-06 07:47 | 35.17481 | 128.94268 | 27 ft | 8 kts | 323° |
| 2026-05-06 07:47 | 35.17573 | 128.94244 | 28 ft | 16 kts | 354° |
| 2026-05-06 07:48 | 35.17682 | 128.94230 | 27 ft | 16 kts | 354° |
| 2026-05-06 07:48 | 35.17811 | 128.94214 | 28 ft | 20 kts | 354° |
| 2026-05-06 07:48 | 35.17951 | 128.94196 | 27 ft | 20 kts | 354° |
| 2026-05-06 07:48 | 35.18098 | 128.94178 | 28 ft | 27 kts | 354° |
| 2026-05-06 07:49 | 35.18335 | 128.94148 | 27 ft | 36 kts | 354° |
| 2026-05-06 07:49 | 35.18577 | 128.94117 | 28 ft | 34 kts | 354° |
| 2026-05-06 07:49 | 35.18803 | 128.94088 | 28 ft | 31 kts | 354° |
| 2026-05-06 07:49 | 35.19014 | 128.94061 | 28 ft | 30 kts | 354° |
| 2026-05-06 07:50 | 35.19212 | 128.94036 | 28 ft | 25 kts | 354° |
| 2026-05-06 07:50 | 35.19350 | 128.94018 | 28 ft | 13 kts | 353° |
| 2026-05-06 07:50 | 35.19399 | 128.93975 | 27 ft | 9 kts | 289° |
| 2026-05-06 07:50 | 35.19399 | 128.93899 | 26 ft | 9 kts | 265° |
| 2026-05-06 07:51 | 35.19394 | 128.93823 | 27 ft | 9 kts | 265° |
| 2026-05-06 07:51 | 35.19367 | 128.93761 | 27 ft | 8 kts | 210° |
| 2026-05-06 07:51 | 35.19313 | 128.93757 | 28 ft | 8 kts | 176° |
| 2026-05-06 07:51 | 35.19234 | 128.93767 | 29 ft | 26 kts | 174° |
| 2026-05-06 07:52 | 35.18837 | 128.93817 | 29 ft | 95 kts | 174° |
| 2026-05-06 07:52 | 35.17948 | 128.93928 | 99 ft | 157 kts | 175° |
| 2026-05-06 07:52 | 35.16885 | 128.94095 | 1042 ft | 150 kts | 176° |
| 2026-05-06 07:52 | 35.15820 | 128.93811 | 1603 ft | 172 kts | 222° |
| 2026-05-06 07:53 | 35.15204 | 128.92688 | 2552 ft | 159 kts | 247° |
| 2026-05-06 07:53 | 35.14842 | 128.91403 | 2840 ft | 152 kts | 251° |
| 2026-05-06 07:53 | 35.14549 | 128.90318 | 3497 ft | 122 kts | 252° |
| 2026-05-06 07:53 | 35.14278 | 128.89319 | 3507 ft | 134 kts | 252° |
| 2026-05-06 07:54 | 35.13932 | 128.88159 | 3580 ft | 144 kts | 245° |
| 2026-05-06 07:54 | 35.13384 | 128.87089 | 3802 ft | 157 kts | 232° |
| 2026-05-06 07:54 | 35.12566 | 128.86117 | 3995 ft | 171 kts | 220° |
| 2026-05-06 07:54 | 35.11604 | 128.85127 | 4282 ft | 190 kts | 221° |
| 2026-05-06 07:55 | 35.10521 | 128.84034 | 4491 ft | 214 kts | 220° |
| 2026-05-06 07:55 | 35.09308 | 128.82820 | 4712 ft | 235 kts | 221° |
| 2026-05-06 07:55 | 35.08010 | 128.81520 | 5103 ft | 252 kts | 221° |
| 2026-05-06 07:55 | 35.06627 | 128.80138 | 5639 ft | 259 kts | 221° |
| 2026-05-06 07:56 | 35.05223 | 128.78733 | 6388 ft | 263 kts | 221° |
| 2026-05-06 07:56 | 35.03836 | 128.77259 | 6957 ft | 266 kts | 231° |
| 2026-05-06 07:56 | 35.02990 | 128.75253 | 7529 ft | 271 kts | 257° |
| 2026-05-06 07:56 | 35.02900 | 128.72969 | 8234 ft | 272 kts | 275° |
| 2026-05-06 07:57 | 35.03452 | 128.70746 | 8883 ft | 280 kts | 301° |
| 2026-05-06 07:57 | 35.04814 | 128.69037 | 9541 ft | 286 kts | 321° |
| 2026-05-06 07:57 | 35.06494 | 128.67700 | 10191 ft | 291 kts | 327° |
| 2026-05-06 07:57 | 35.08282 | 128.66502 | 10923 ft | 294 kts | 330° |
| 2026-05-06 07:58 | 35.10141 | 128.65423 | 11756 ft | 297 kts | 334° |
| 2026-05-06 07:58 | 35.12082 | 128.64521 | 12651 ft | 300 kts | 339° |
| 2026-05-06 07:58 | 35.14106 | 128.63812 | 13539 ft | 304 kts | 343° |
| 2026-05-06 07:58 | 35.16172 | 128.63314 | 14301 ft | 310 kts | 349° |
| 2026-05-06 07:59 | 35.18327 | 128.63025 | 15047 ft | 313 kts | 353° |
| 2026-05-06 07:59 | 35.20522 | 128.62966 | 15825 ft | 317 kts | 358° |
| 2026-05-06 07:59 | 35.22740 | 128.63147 | 16587 ft | 322 kts | 3° |
| 2026-05-06 07:59 | 35.24967 | 128.63576 | 17346 ft | 326 kts | 8° |
| 2026-05-06 08:00 | 35.27183 | 128.64260 | 18103 ft | 331 kts | 13° |
| 2026-05-06 08:00 | 35.29372 | 128.65205 | 18758 ft | 336 kts | 19° |
| 2026-05-06 08:00 | 35.31513 | 128.66418 | 19409 ft | 341 kts | 24° |
| 2026-05-06 08:00 | 35.33574 | 128.67891 | 20074 ft | 345 kts | 29° |
| 2026-05-06 08:01 | 35.35530 | 128.69619 | 20735 ft | 350 kts | 35° |
| 2026-05-06 08:01 | 35.37370 | 128.71602 | 21380 ft | 355 kts | 40° |
| 2026-05-06 08:01 | 35.39086 | 128.73804 | 22037 ft | 360 kts | 45° |
| 2026-05-06 08:01 | 35.40591 | 128.76272 | 22591 ft | 365 kts | 57° |
| 2026-05-06 08:02 | 35.41818 | 128.79024 | 22972 ft | 369 kts | 52° |
| 2026-05-06 08:02 | 35.43554 | 128.81302 | 23462 ft | 365 kts | 30° |
| 2026-05-06 08:02 | 35.45794 | 128.82656 | 24125 ft | 355 kts | 10° |
| 2026-05-06 08:02 | 35.48204 | 128.82992 | 24804 ft | 346 kts | 352° |
| 2026-05-06 08:03 | 35.50549 | 128.82458 | 25399 ft | 342 kts | 336° |
| 2026-05-06 08:03 | 35.52657 | 128.81136 | 25886 ft | 342 kts | 327° |
| 2026-05-06 08:03 | 35.54684 | 128.79573 | 26436 ft | 345 kts | 326° |
| 2026-05-06 08:03 | 35.56707 | 128.77962 | 27058 ft | 347 kts | 325° |
| 2026-05-06 08:04 | 35.58759 | 128.76329 | 27370 ft | 359 kts | 326° |
| 2026-05-06 08:04 | 35.60879 | 128.74658 | 27480 ft | 375 kts | 326° |
| 2026-05-06 08:04 | 35.63128 | 128.72902 | 27588 ft | 391 kts | 326° |
| 2026-05-06 08:04 | 35.65474 | 128.71084 | 27692 ft | 406 kts | 326° |
| 2026-05-06 08:05 | 35.67910 | 128.69203 | 27810 ft | 420 kts | 326° |
| 2026-05-06 08:05 | 35.70420 | 128.67269 | 28024 ft | 430 kts | 326° |
| 2026-05-06 08:05 | 35.72974 | 128.65302 | 28384 ft | 436 kts | 326° |
| 2026-05-06 08:05 | 35.75556 | 128.63310 | 28828 ft | 439 kts | 326° |
| 2026-05-06 08:06 | 35.78144 | 128.61312 | 29326 ft | 440 kts | 326° |
| 2026-05-06 08:06 | 35.80671 | 128.59183 | 29798 ft | 440 kts | 322° |
| 2026-05-06 08:06 | 35.83040 | 128.56784 | 30194 ft | 442 kts | 316° |
| 2026-05-06 08:06 | 35.85260 | 128.54149 | 30525 ft | 444 kts | 315° |
| 2026-05-06 08:07 | 35.87475 | 128.51485 | 30849 ft | 445 kts | 315° |
| 2026-05-06 08:07 | 35.89692 | 128.48818 | 31181 ft | 446 kts | 315° |
| 2026-05-06 08:07 | 35.91924 | 128.46141 | 31487 ft | 448 kts | 316° |
| 2026-05-06 08:07 | 35.94164 | 128.43461 | 31782 ft | 449 kts | 316° |
| 2026-05-06 08:08 | 35.96403 | 128.40787 | 32168 ft | 447 kts | 316° |
| 2026-05-06 08:08 | 35.98630 | 128.38128 | 32644 ft | 444 kts | 316° |
| 2026-05-06 08:08 | 36.00813 | 128.35523 | 33088 ft | 442 kts | 316° |
| 2026-05-06 08:08 | 36.03015 | 128.32892 | 33536 ft | 439 kts | 316° |
| 2026-05-06 08:09 | 36.05208 | 128.30270 | 33987 ft | 437 kts | 316° |
| 2026-05-06 08:09 | 36.07391 | 128.27657 | 34324 ft | 436 kts | 316° |
| 2026-05-06 08:09 | 36.09573 | 128.25044 | 34632 ft | 436 kts | 316° |
| 2026-05-06 08:09 | 36.11749 | 128.22434 | 34917 ft | 436 kts | 316° |
| 2026-05-06 08:10 | 36.13929 | 128.19819 | 35230 ft | 435 kts | 316° |
| 2026-05-06 08:10 | 36.16100 | 128.17211 | 35560 ft | 435 kts | 316° |
| 2026-05-06 08:10 | 36.18265 | 128.14608 | 35862 ft | 434 kts | 316° |
| 2026-05-06 08:10 | 36.20428 | 128.12007 | 36173 ft | 433 kts | 316° |
| 2026-05-06 08:11 | 36.22589 | 128.09406 | 36473 ft | 433 kts | 316° |
| 2026-05-06 08:11 | 36.24776 | 128.06854 | 36736 ft | 431 kts | 321° |
| 2026-05-06 08:11 | 36.27286 | 128.04811 | 36930 ft | 433 kts | 331° |
| 2026-05-06 08:11 | 36.29999 | 128.03302 | 37205 ft | 434 kts | 337° |
| 2026-05-06 08:12 | 36.32889 | 128.02211 | 37507 ft | 436 kts | 347° |
| 2026-05-06 08:12 | 36.35902 | 128.01709 | 37793 ft | 438 kts | 351° |
| 2026-05-06 08:12 | 36.38936 | 128.01343 | 38056 ft | 438 kts | 351° |
| 2026-05-06 08:12 | 36.41977 | 128.00992 | 38321 ft | 438 kts | 351° |
| 2026-05-06 08:13 | 36.45004 | 128.00619 | 38548 ft | 438 kts | 351° |
| 2026-05-06 08:13 | 36.48030 | 128.00220 | 38789 ft | 437 kts | 350° |
| 2026-05-06 08:13 | 36.51057 | 127.99804 | 38925 ft | 438 kts | 350° |
| 2026-05-06 08:13 | 36.54092 | 127.99381 | 39072 ft | 439 kts | 350° |
| 2026-05-06 08:14 | 36.57122 | 127.98960 | 39246 ft | 439 kts | 350° |
| 2026-05-06 08:14 | 36.60165 | 127.98548 | 39418 ft | 439 kts | 350° |
| 2026-05-06 08:14 | 36.63213 | 127.98142 | 39543 ft | 441 kts | 350° |
| 2026-05-06 08:14 | 36.66268 | 127.97735 | 39638 ft | 442 kts | 350° |
| 2026-05-06 08:15 | 36.69326 | 127.97327 | 39815 ft | 442 kts | 350° |
| 2026-05-06 08:15 | 36.72393 | 127.96916 | 39891 ft | 444 kts | 350° |
| 2026-05-06 08:15 | 36.78537 | 127.96090 | 39969 ft | 444 kts | 349° |
| 2026-05-06 08:16 | 36.81520 | 127.95321 | 39972 ft | 435 kts | 336° |
| 2026-05-06 08:16 | 36.84197 | 127.93625 | 39992 ft | 431 kts | 324° |
| 2026-05-06 08:16 | 36.88426 | 127.88444 | 39986 ft | 428 kts | 304° |
| 2026-05-06 08:17 | 36.91737 | 127.82233 | 39979 ft | 430 kts | 304° |
| 2026-05-06 08:17 | 36.95161 | 127.76100 | 39977 ft | 431 kts | 305° |
| 2026-05-06 08:18 | 36.98627 | 127.69989 | 39973 ft | 430 kts | 305° |
| 2026-05-06 08:18 | 37.02051 | 127.63915 | 39967 ft | 430 kts | 305° |
| 2026-05-06 08:19 | 37.05472 | 127.57784 | 39958 ft | 429 kts | 305° |
| 2026-05-06 08:19 | 37.08874 | 127.51657 | 39960 ft | 428 kts | 305° |
| 2026-05-06 08:20 | 37.12267 | 127.45545 | 39965 ft | 427 kts | 304° |
| 2026-05-06 08:20 | 37.15650 | 127.39437 | 39980 ft | 426 kts | 304° |
| 2026-05-06 08:21 | 37.19025 | 127.33329 | 39991 ft | 425 kts | 304° |
| 2026-05-06 08:21 | 37.22387 | 127.27235 | 40008 ft | 424 kts | 304° |
| 2026-05-06 08:22 | 37.25737 | 127.21150 | 40023 ft | 423 kts | 304° |
| 2026-05-06 08:22 | 37.28515 | 127.16095 | 40030 ft | 423 kts | 304° |
| 2026-05-06 08:23 | 37.31848 | 127.10027 | 40029 ft | 421 kts | 304° |
| 2026-05-06 08:23 | 37.35196 | 127.04000 | 40019 ft | 420 kts | 304° |
| 2026-05-06 08:24 | 37.39002 | 126.96972 | 40028 ft | 417 kts | 298° |
| 2026-05-06 08:24 | 37.40713 | 126.91269 | 40041 ft | 418 kts | 287° |
| 2026-05-06 08:25 | 37.41484 | 126.84721 | 40030 ft | 422 kts | 274° |
| 2026-05-06 08:25 | 37.41412 | 126.77378 | 40022 ft | 422 kts | 273° |
| 2026-05-06 08:26 | 37.41314 | 126.69995 | 40027 ft | 422 kts | 273° |
| 2026-05-06 08:26 | 37.41264 | 126.62628 | 40046 ft | 421 kts | 274° |
| 2026-05-06 08:27 | 37.41226 | 126.55266 | 40046 ft | 420 kts | 274° |
| 2026-05-06 08:27 | 37.41179 | 126.47913 | 40048 ft | 420 kts | 273° |
| 2026-05-06 08:28 | 37.41123 | 126.40569 | 40049 ft | 420 kts | 273° |
| 2026-05-06 08:28 | 37.41063 | 126.33225 | 40046 ft | 419 kts | 273° |
| 2026-05-06 08:29 | 37.40999 | 126.25893 | 40045 ft | 419 kts | 273° |
| 2026-05-06 08:29 | 37.40931 | 126.18568 | 40040 ft | 419 kts | 273° |
| 2026-05-06 08:30 | 37.40858 | 126.11236 | 40032 ft | 418 kts | 273° |
| 2026-05-06 08:30 | 37.40781 | 126.03918 | 40021 ft | 418 kts | 273° |
| 2026-05-06 08:31 | 37.40701 | 125.96662 | 40012 ft | 417 kts | 273° |
| 2026-05-06 08:31 | 37.40615 | 125.89379 | 40007 ft | 416 kts | 273° |
| 2026-05-06 08:32 | 37.40526 | 125.82092 | 40002 ft | 416 kts | 273° |
| 2026-05-06 08:32 | 37.40432 | 125.74834 | 40002 ft | 415 kts | 273° |
| 2026-05-06 08:33 | 37.40335 | 125.67586 | 39994 ft | 414 kts | 273° |
| 2026-05-06 08:33 | 37.40236 | 125.60356 | 39994 ft | 413 kts | 273° |
| 2026-05-06 08:34 | 37.40091 | 125.49535 | 39991 ft | 412 kts | 273° |
| 2026-05-06 08:35 | 37.39990 | 125.42337 | 39990 ft | 411 kts | 273° |
| 2026-05-06 08:35 | 37.39884 | 125.35157 | 39986 ft | 411 kts | 273° |
| 2026-05-06 08:36 | 37.39774 | 125.27981 | 39986 ft | 410 kts | 273° |
| 2026-05-06 08:36 | 37.39660 | 125.20820 | 39982 ft | 410 kts | 272° |
| 2026-05-06 08:37 | 37.39540 | 125.13651 | 39978 ft | 409 kts | 272° |
| 2026-05-06 08:37 | 37.39418 | 125.06501 | 39973 ft | 409 kts | 272° |
| 2026-05-06 08:38 | 37.39292 | 124.99354 | 39973 ft | 409 kts | 272° |
| 2026-05-06 08:38 | 37.39163 | 124.92258 | 39969 ft | 408 kts | 272° |
| 2026-05-06 08:39 | 37.39029 | 124.85114 | 39970 ft | 408 kts | 272° |
| 2026-05-06 08:39 | 37.38887 | 124.77961 | 39966 ft | 409 kts | 272° |
| 2026-05-06 08:40 | 37.38739 | 124.70826 | 39966 ft | 409 kts | 272° |
| 2026-05-06 08:40 | 37.38588 | 124.63680 | 39965 ft | 408 kts | 272° |
| 2026-05-06 08:41 | 37.38434 | 124.56547 | 39958 ft | 408 kts | 272° |
| 2026-05-06 08:41 | 37.38275 | 124.49404 | 39957 ft | 408 kts | 272° |
| 2026-05-06 08:42 | 37.37288 | 124.42345 | 39962 ft | 416 kts | 258° |
| 2026-05-06 08:42 | 37.35064 | 124.35573 | 39946 ft | 427 kts | 246° |
| 2026-05-06 08:43 | 37.31881 | 124.29308 | 39948 ft | 429 kts | 244° |
| 2026-05-06 08:43 | 37.28634 | 124.23039 | 39944 ft | 427 kts | 245° |
| 2026-05-06 08:44 | 37.25443 | 124.16749 | 39944 ft | 427 kts | 245° |
| 2026-05-06 08:44 | 37.22239 | 124.10471 | 39946 ft | 427 kts | 244° |
| 2026-05-06 08:45 | 37.18949 | 124.04259 | 39947 ft | 427 kts | 244° |
| 2026-05-06 08:45 | 37.15673 | 123.98048 | 39946 ft | 426 kts | 244° |
| 2026-05-06 08:46 | 37.12454 | 123.91814 | 39947 ft | 426 kts | 244° |
| 2026-05-06 08:46 | 37.09243 | 123.85580 | 39943 ft | 426 kts | 244° |
| 2026-05-06 08:47 | 37.06026 | 123.79357 | 39945 ft | 425 kts | 244° |
| 2026-05-06 08:47 | 37.02822 | 123.73179 | 39944 ft | 425 kts | 244° |
| 2026-05-06 08:48 | 36.99596 | 123.66971 | 39940 ft | 426 kts | 244° |
| 2026-05-06 08:48 | 36.96363 | 123.60762 | 39942 ft | 426 kts | 244° |
| 2026-05-06 08:49 | 36.93126 | 123.54555 | 39951 ft | 426 kts | 244° |
| 2026-05-06 08:49 | 36.89892 | 123.48366 | 40032 ft | 425 kts | 244° |
| 2026-05-06 08:50 | 36.86654 | 123.42177 | 40034 ft | 426 kts | 244° |
| 2026-05-06 08:50 | 36.85193 | 123.39003 | 40031 ft | 415 kts | 255° |
| 2026-05-06 08:50 | 36.84476 | 123.35562 | 40046 ft | 407 kts | 266° |
| 2026-05-06 08:51 | 36.84622 | 123.28560 | 40030 ft | 404 kts | 285° |
| 2026-05-06 08:51 | 36.86276 | 123.21827 | 40039 ft | 408 kts | 287° |
| 2026-05-06 08:52 | 36.87988 | 123.15048 | 40038 ft | 411 kts | 287° |
| 2026-05-06 08:52 | 36.89657 | 123.08252 | 40031 ft | 412 kts | 287° |
| 2026-05-06 08:53 | 36.91310 | 123.01398 | 40026 ft | 411 kts | 286° |
| 2026-05-06 08:53 | 36.92947 | 122.94565 | 40023 ft | 410 kts | 286° |
| 2026-05-06 08:54 | 36.94572 | 122.87758 | 40022 ft | 408 kts | 286° |
| 2026-05-06 08:54 | 36.96191 | 122.80960 | 40020 ft | 407 kts | 286° |
| 2026-05-06 08:55 | 36.97801 | 122.74181 | 40014 ft | 406 kts | 286° |
| 2026-05-06 08:55 | 36.99405 | 122.67409 | 40017 ft | 406 kts | 286° |
| 2026-05-06 08:56 | 37.00994 | 122.60679 | 40015 ft | 406 kts | 286° |
| 2026-05-06 08:56 | 37.02593 | 122.53890 | 40014 ft | 406 kts | 285° |
| 2026-05-06 08:57 | 37.04186 | 122.47107 | 40008 ft | 407 kts | 285° |
| 2026-05-06 08:57 | 37.05779 | 122.40308 | 40012 ft | 407 kts | 285° |
| 2026-05-06 08:58 | 37.08147 | 122.33885 | 40014 ft | 411 kts | 301° |
| 2026-05-06 08:58 | 37.11873 | 122.28395 | 39998 ft | 421 kts | 315° |
| 2026-05-06 08:59 | 37.16325 | 122.23740 | 40005 ft | 414 kts | 307° |
| 2026-05-06 08:59 | 37.19544 | 122.17828 | 39995 ft | 408 kts | 294° |
| 2026-05-06 09:00 | 37.21463 | 122.11163 | 39996 ft | 407 kts | 286° |
| 2026-05-06 09:00 | 37.23167 | 122.04366 | 39992 ft | 408 kts | 286° |
| 2026-05-06 09:01 | 37.24890 | 121.97570 | 39990 ft | 409 kts | 287° |
| 2026-05-06 09:01 | 37.26629 | 121.90803 | 39977 ft | 409 kts | 287° |
| 2026-05-06 09:02 | 37.28381 | 121.84004 | 39978 ft | 409 kts | 287° |
| 2026-05-06 09:02 | 37.30130 | 121.77203 | 39981 ft | 409 kts | 286° |
| 2026-05-06 09:03 | 37.31878 | 121.70383 | 39965 ft | 410 kts | 286° |
| 2026-05-06 09:03 | 37.33622 | 121.63564 | 39962 ft | 411 kts | 286° |
| 2026-05-06 09:04 | 37.35367 | 121.56721 | 39962 ft | 411 kts | 286° |
| 2026-05-06 09:04 | 37.37112 | 121.49860 | 39948 ft | 412 kts | 286° |
| 2026-05-06 09:05 | 37.38851 | 121.43004 | 39942 ft | 412 kts | 286° |
| 2026-05-06 09:05 | 37.40575 | 121.36185 | 39945 ft | 412 kts | 285° |
| 2026-05-06 09:06 | 37.42308 | 121.29314 | 39933 ft | 412 kts | 285° |
| 2026-05-06 09:06 | 37.44037 | 121.22442 | 39933 ft | 412 kts | 285° |
| 2026-05-06 09:07 | 37.45870 | 121.15597 | 39930 ft | 413 kts | 289° |
| 2026-05-06 09:07 | 37.48010 | 121.08887 | 39926 ft | 414 kts | 289° |
| 2026-05-06 09:08 | 37.50162 | 121.02194 | 39921 ft | 414 kts | 289° |
| 2026-05-06 09:08 | 37.52305 | 120.95456 | 39917 ft | 415 kts | 289° |
| 2026-05-06 09:09 | 37.54446 | 120.88687 | 39912 ft | 416 kts | 289° |
| 2026-05-06 09:09 | 37.56587 | 120.81898 | 39908 ft | 417 kts | 289° |
| 2026-05-06 09:10 | 37.58734 | 120.75084 | 39897 ft | 419 kts | 289° |
| 2026-05-06 09:10 | 37.60960 | 120.68290 | 39897 ft | 420 kts | 289° |
| 2026-05-06 09:11 | 37.63213 | 120.61485 | 39891 ft | 421 kts | 289° |
| 2026-05-06 09:11 | 37.65492 | 120.54686 | 39889 ft | 422 kts | 291° |
| 2026-05-06 09:12 | 37.68322 | 120.48211 | 39892 ft | 424 kts | 295° |
| 2026-05-06 09:12 | 37.71300 | 120.41757 | 39885 ft | 424 kts | 295° |
| 2026-05-06 09:13 | 37.74256 | 120.35310 | 39869 ft | 424 kts | 295° |
| 2026-05-06 09:13 | 37.77194 | 120.28859 | 39865 ft | 423 kts | 295° |
| 2026-05-06 09:14 | 37.79627 | 120.23497 | 39861 ft | 423 kts | 294° |
| 2026-05-06 09:14 | 37.82550 | 120.17041 | 39861 ft | 422 kts | 294° |
| 2026-05-06 09:15 | 37.85934 | 120.09551 | 39857 ft | 422 kts | 294° |
| 2026-05-06 09:15 | 37.88837 | 120.03113 | 39859 ft | 421 kts | 294° |
| 2026-05-06 09:16 | 37.91266 | 119.97717 | 39859 ft | 421 kts | 294° |
| 2026-05-06 09:16 | 37.94158 | 119.91278 | 39858 ft | 420 kts | 294° |
| 2026-05-06 09:17 | 37.97042 | 119.84847 | 39862 ft | 419 kts | 294° |
| 2026-05-06 09:17 | 37.99917 | 119.78421 | 39861 ft | 418 kts | 294° |
| 2026-05-06 09:18 | 38.02763 | 119.72047 | 39864 ft | 417 kts | 294° |
| 2026-05-06 09:18 | 38.05617 | 119.65644 | 39862 ft | 417 kts | 294° |
| 2026-05-06 09:19 | 38.08464 | 119.59243 | 39864 ft | 416 kts | 294° |
| 2026-05-06 09:19 | 38.11247 | 119.52817 | 39871 ft | 413 kts | 290° |
| 2026-05-06 09:20 | 38.13483 | 119.46135 | 39875 ft | 411 kts | 287° |
| 2026-05-06 09:20 | 38.15651 | 119.39416 | 39878 ft | 411 kts | 287° |
| 2026-05-06 09:21 | 38.17831 | 119.32682 | 39881 ft | 412 kts | 287° |
| 2026-05-06 09:21 | 38.20019 | 119.25936 | 39879 ft | 413 kts | 287° |
| 2026-05-06 09:22 | 38.22221 | 119.19132 | 39177 ft | 419 kts | 287° |
| 2026-05-06 09:22 | 38.23317 | 119.15756 | 38564 ft | 407 kts | 287° |
| 2026-05-06 09:22 | 38.24382 | 119.12465 | 37795 ft | 407 kts | 286° |
| 2026-05-06 09:22 | 38.25458 | 119.09127 | 37006 ft | 408 kts | 287° |
| 2026-05-06 09:23 | 38.26533 | 119.05783 | 36229 ft | 409 kts | 287° |
| 2026-05-06 09:23 | 38.27612 | 119.02427 | 35443 ft | 411 kts | 287° |
| 2026-05-06 09:23 | 38.28696 | 118.99052 | 34763 ft | 411 kts | 287° |
| 2026-05-06 09:23 | 38.29777 | 118.95687 | 34106 ft | 410 kts | 287° |
| 2026-05-06 09:24 | 38.30853 | 118.92332 | 33424 ft | 409 kts | 288° |
| 2026-05-06 09:24 | 38.31929 | 118.88975 | 32773 ft | 407 kts | 288° |
| 2026-05-06 09:24 | 38.32993 | 118.85653 | 32165 ft | 405 kts | 288° |
| 2026-05-06 09:24 | 38.34051 | 118.82342 | 31567 ft | 402 kts | 288° |
| 2026-05-06 09:25 | 38.35104 | 118.79045 | 30984 ft | 399 kts | 288° |
| 2026-05-06 09:25 | 38.36146 | 118.75776 | 30406 ft | 397 kts | 288° |
| 2026-05-06 09:25 | 38.37179 | 118.72532 | 29819 ft | 395 kts | 288° |
| 2026-05-06 09:25 | 38.38208 | 118.69295 | 29094 ft | 392 kts | 288° |
| 2026-05-06 09:26 | 38.39226 | 118.66087 | 28431 ft | 389 kts | 288° |
| 2026-05-06 09:26 | 38.40233 | 118.62912 | 27799 ft | 385 kts | 288° |
| 2026-05-06 09:26 | 38.41218 | 118.59802 | 27179 ft | 382 kts | 288° |
| 2026-05-06 09:26 | 38.42207 | 118.56673 | 26562 ft | 379 kts | 288° |
| 2026-05-06 09:27 | 38.43200 | 118.53528 | 25967 ft | 376 kts | 288° |
| 2026-05-06 09:27 | 38.44159 | 118.50487 | 25388 ft | 373 kts | 287° |
| 2026-05-06 09:27 | 38.45127 | 118.47415 | 24805 ft | 372 kts | 287° |
| 2026-05-06 09:27 | 38.46088 | 118.44364 | 24222 ft | 370 kts | 287° |
| 2026-05-06 09:28 | 38.47046 | 118.41318 | 23629 ft | 369 kts | 287° |
| 2026-05-06 09:28 | 38.48002 | 118.38278 | 22999 ft | 369 kts | 287° |
| 2026-05-06 09:28 | 38.48961 | 118.35239 | 22378 ft | 368 kts | 287° |
| 2026-05-06 09:28 | 38.49913 | 118.32218 | 21795 ft | 366 kts | 287° |
| 2026-05-06 09:29 | 38.50859 | 118.29220 | 21251 ft | 364 kts | 287° |
| 2026-05-06 09:29 | 38.51801 | 118.26227 | 20689 ft | 362 kts | 287° |
| 2026-05-06 09:29 | 38.52737 | 118.23247 | 20160 ft | 361 kts | 287° |
| 2026-05-06 09:29 | 38.53670 | 118.20275 | 19631 ft | 360 kts | 287° |
| 2026-05-06 09:30 | 38.54598 | 118.17314 | 19109 ft | 359 kts | 287° |
| 2026-05-06 09:30 | 38.55511 | 118.14398 | 18598 ft | 358 kts | 287° |
| 2026-05-06 09:30 | 38.56447 | 118.11405 | 18045 ft | 358 kts | 287° |
| 2026-05-06 09:30 | 38.57358 | 118.08488 | 17481 ft | 358 kts | 287° |
| 2026-05-06 09:31 | 38.58278 | 118.05541 | 16935 ft | 356 kts | 287° |
| 2026-05-06 09:31 | 38.59195 | 118.02605 | 16498 ft | 353 kts | 287° |
| 2026-05-06 09:31 | 38.60142 | 117.99783 | 16488 ft | 340 kts | 289° |
| 2026-05-06 09:31 | 38.61110 | 117.97043 | 16458 ft | 337 kts | 289° |
| 2026-05-06 09:32 | 38.62081 | 117.94316 | 16425 ft | 337 kts | 289° |
| 2026-05-06 09:32 | 38.63052 | 117.91582 | 16400 ft | 338 kts | 289° |
| 2026-05-06 09:32 | 38.64021 | 117.88839 | 16372 ft | 339 kts | 289° |
| 2026-05-06 09:32 | 38.64990 | 117.86087 | 16340 ft | 339 kts | 289° |
| 2026-05-06 09:33 | 38.65954 | 117.83339 | 16316 ft | 339 kts | 289° |
| 2026-05-06 09:33 | 38.66920 | 117.80579 | 16295 ft | 339 kts | 289° |
| 2026-05-06 09:33 | 38.67881 | 117.77827 | 16267 ft | 339 kts | 289° |
| 2026-05-06 09:33 | 38.68840 | 117.75076 | 16235 ft | 338 kts | 289° |
| 2026-05-06 09:34 | 38.69798 | 117.72327 | 16216 ft | 338 kts | 289° |
| 2026-05-06 09:34 | 38.70742 | 117.69615 | 16183 ft | 337 kts | 289° |
| 2026-05-06 09:34 | 38.71695 | 117.66875 | 16163 ft | 337 kts | 289° |
| 2026-05-06 09:34 | 38.72645 | 117.64138 | 16142 ft | 336 kts | 289° |
| 2026-05-06 09:35 | 38.73596 | 117.61397 | 16103 ft | 336 kts | 289° |
| 2026-05-06 09:35 | 38.74545 | 117.58658 | 16078 ft | 336 kts | 289° |
| 2026-05-06 09:35 | 38.75491 | 117.55924 | 16050 ft | 336 kts | 289° |
| 2026-05-06 09:35 | 38.76434 | 117.53196 | 16030 ft | 335 kts | 289° |
| 2026-05-06 09:36 | 38.77380 | 117.50460 | 15999 ft | 335 kts | 289° |
| 2026-05-06 09:36 | 38.78322 | 117.47731 | 15978 ft | 335 kts | 289° |
| 2026-05-06 09:36 | 38.79265 | 117.44999 | 15943 ft | 335 kts | 289° |
| 2026-05-06 09:36 | 38.80205 | 117.42271 | 15926 ft | 334 kts | 289° |
| 2026-05-06 09:37 | 38.81145 | 117.39541 | 15900 ft | 334 kts | 289° |
| 2026-05-06 09:37 | 38.82082 | 117.36815 | 15877 ft | 334 kts | 289° |
| 2026-05-06 09:37 | 38.83020 | 117.34087 | 15843 ft | 334 kts | 289° |
| 2026-05-06 09:37 | 38.83957 | 117.31358 | 15817 ft | 334 kts | 289° |
| 2026-05-06 09:38 | 38.84907 | 117.28651 | 15782 ft | 330 kts | 293° |
| 2026-05-06 09:38 | 38.86332 | 117.26285 | 15760 ft | 345 kts | 311° |
| 2026-05-06 09:38 | 38.88333 | 117.24487 | 15735 ft | 360 kts | 328° |
| 2026-05-06 09:38 | 38.90689 | 117.23353 | 15713 ft | 363 kts | 335° |
| 2026-05-06 09:39 | 38.93095 | 117.22359 | 15683 ft | 363 kts | 336° |
| 2026-05-06 09:39 | 38.95473 | 117.21381 | 15658 ft | 363 kts | 336° |
| 2026-05-06 09:39 | 38.97868 | 117.20364 | 15622 ft | 362 kts | 335° |
| 2026-05-06 09:39 | 39.00248 | 117.19325 | 15595 ft | 361 kts | 335° |
| 2026-05-06 09:40 | 39.02622 | 117.18278 | 15568 ft | 360 kts | 335° |
| 2026-05-06 09:40 | 39.04994 | 117.17227 | 15460 ft | 361 kts | 335° |
| 2026-05-06 09:40 | 39.09760 | 117.15113 | 15207 ft | 361 kts | 335° |
| 2026-05-06 09:41 | 39.12121 | 117.14068 | 15074 ft | 356 kts | 335° |
| 2026-05-06 09:41 | 39.14450 | 117.13038 | 14949 ft | 351 kts | 335° |
| 2026-05-06 09:41 | 39.16755 | 117.12015 | 14831 ft | 349 kts | 335° |
| 2026-05-06 09:41 | 39.19049 | 117.10995 | 14698 ft | 348 kts | 335° |
| 2026-05-06 09:42 | 39.21329 | 117.09981 | 14585 ft | 346 kts | 335° |
| 2026-05-06 09:42 | 39.23607 | 117.08966 | 14463 ft | 346 kts | 335° |
| 2026-05-06 09:42 | 39.25879 | 117.07954 | 14337 ft | 345 kts | 335° |
| 2026-05-06 09:42 | 39.28149 | 117.06942 | 14213 ft | 345 kts | 335° |
| 2026-05-06 09:43 | 39.30417 | 117.05930 | 14097 ft | 345 kts | 335° |
| 2026-05-06 09:43 | 39.32691 | 117.04915 | 13975 ft | 346 kts | 335° |
| 2026-05-06 09:43 | 39.34960 | 117.03903 | 13855 ft | 346 kts | 335° |
| 2026-05-06 09:43 | 39.37234 | 117.02887 | 13723 ft | 345 kts | 335° |
| 2026-05-06 09:44 | 39.39508 | 117.01870 | 13531 ft | 347 kts | 335° |
| 2026-05-06 09:44 | 39.41791 | 117.00847 | 13265 ft | 346 kts | 335° |
| 2026-05-06 09:44 | 39.44050 | 116.99837 | 13008 ft | 340 kts | 335° |
| 2026-05-06 09:44 | 39.46239 | 116.98861 | 12624 ft | 323 kts | 335° |
| 2026-05-06 09:45 | 39.48313 | 116.97936 | 12118 ft | 307 kts | 335° |
| 2026-05-06 09:45 | 39.50275 | 116.97057 | 11664 ft | 291 kts | 335° |
| 2026-05-06 09:45 | 39.52147 | 116.96214 | 11209 ft | 278 kts | 335° |
| 2026-05-06 09:45 | 39.53932 | 116.95410 | 10767 ft | 266 kts | 336° |
| 2026-05-06 09:46 | 39.55614 | 116.94559 | 10316 ft | 252 kts | 325° |
| 2026-05-06 09:46 | 39.56834 | 116.93094 | 9982 ft | 239 kts | 307° |
| 2026-05-06 09:46 | 39.57779 | 116.91334 | 9713 ft | 238 kts | 303° |
| 2026-05-06 09:46 | 39.58663 | 116.89525 | 9413 ft | 236 kts | 303° |
| 2026-05-06 09:47 | 39.59527 | 116.87718 | 9119 ft | 235 kts | 303° |
| 2026-05-06 09:47 | 39.60380 | 116.85920 | 8837 ft | 233 kts | 302° |
| 2026-05-06 09:47 | 39.61223 | 116.84130 | 8553 ft | 232 kts | 302° |
| 2026-05-06 09:47 | 39.62057 | 116.82342 | 8267 ft | 231 kts | 302° |
| 2026-05-06 09:48 | 39.62884 | 116.80558 | 7990 ft | 230 kts | 303° |
| 2026-05-06 09:48 | 39.63702 | 116.78777 | 7710 ft | 229 kts | 302° |
| 2026-05-06 09:48 | 39.64512 | 116.76999 | 7432 ft | 228 kts | 303° |
| 2026-05-06 09:48 | 39.65311 | 116.75224 | 7162 ft | 228 kts | 302° |
| 2026-05-06 09:49 | 39.66104 | 116.73447 | 6897 ft | 227 kts | 302° |
| 2026-05-06 09:49 | 39.66892 | 116.71670 | 6628 ft | 226 kts | 302° |
| 2026-05-06 09:49 | 39.67677 | 116.69908 | 6355 ft | 224 kts | 306° |
| 2026-05-06 09:49 | 39.68726 | 116.68422 | 6089 ft | 223 kts | 322° |
| 2026-05-06 09:50 | 39.70111 | 116.67549 | 5801 ft | 223 kts | 348° |
| 2026-05-06 09:50 | 39.71631 | 116.67221 | 5549 ft | 221 kts | 351° |
| 2026-05-06 09:50 | 39.73144 | 116.66929 | 5253 ft | 220 kts | 352° |
| 2026-05-06 09:50 | 39.74660 | 116.66669 | 4997 ft | 218 kts | 353° |
| 2026-05-06 09:51 | 39.76158 | 116.66427 | 4813 ft | 216 kts | 353° |
| 2026-05-06 09:51 | 39.77636 | 116.66193 | 4595 ft | 212 kts | 353° |
| 2026-05-06 09:51 | 39.79087 | 116.65968 | 4402 ft | 208 kts | 353° |
| 2026-05-06 09:51 | 39.80516 | 116.65745 | 4179 ft | 203 kts | 354° |
| 2026-05-06 09:52 | 39.81869 | 116.65536 | 3964 ft | 195 kts | 354° |
| 2026-05-06 09:52 | 39.83200 | 116.65325 | 3854 ft | 194 kts | 354° |
| 2026-05-06 09:52 | 39.84530 | 116.65114 | 3638 ft | 192 kts | 355° |
| 2026-05-06 09:52 | 39.85862 | 116.64908 | 3471 ft | 193 kts | 355° |
| 2026-05-06 09:53 | 39.87197 | 116.64697 | 3283 ft | 193 kts | 355° |
| 2026-05-06 09:53 | 39.88528 | 116.64492 | 3087 ft | 191 kts | 356° |
| 2026-05-06 09:53 | 39.89845 | 116.64287 | 2909 ft | 191 kts | 355° |
| 2026-05-06 09:53 | 39.91174 | 116.64077 | 2737 ft | 193 kts | 355° |
| 2026-05-06 09:54 | 39.92510 | 116.63868 | 2575 ft | 194 kts | 355° |
| 2026-05-06 09:54 | 39.93855 | 116.63659 | 2395 ft | 195 kts | 354° |
| 2026-05-06 09:54 | 39.95150 | 116.63454 | 2219 ft | 178 kts | 355° |
| 2026-05-06 09:54 | 39.96383 | 116.63261 | 2120 ft | 179 kts | 354° |
| 2026-05-06 09:55 | 39.97611 | 116.63068 | 1909 ft | 177 kts | 355° |
| 2026-05-06 09:55 | 39.98819 | 116.62878 | 1544 ft | 174 kts | 354° |
| 2026-05-06 09:55 | 39.99994 | 116.62690 | 1258 ft | 164 kts | 354° |
| 2026-05-06 09:55 | 40.01079 | 116.62521 | 1050 ft | 149 kts | 355° |
| 2026-05-06 09:56 | 40.02083 | 116.62363 | 874 ft | 145 kts | 353° |
| 2026-05-06 09:56 | 40.03082 | 116.62207 | 679 ft | 142 kts | 354° |
| 2026-05-06 09:56 | 40.04045 | 116.62054 | 499 ft | 141 kts | 353° |
| 2026-05-06 09:56 | 40.05032 | 116.61900 | 320 ft | 141 kts | 353° |
| 2026-05-06 09:57 | 40.05988 | 116.61751 | 161 ft | 140 kts | 353° |
| 2026-05-06 09:57 | 40.06910 | 116.61607 | 124 ft | 115 kts | 353° |
| 2026-05-06 09:57 | 40.07521 | 116.61513 | 125 ft | 62 kts | 353° |
| 2026-05-06 09:57 | 40.07799 | 116.61469 | 125 ft | 32 kts | 353° |
| 2026-05-06 09:58 | 40.08035 | 116.61432 | 124 ft | 30 kts | 353° |
| 2026-05-06 09:58 | 40.08229 | 116.61376 | 126 ft | 25 kts | 338° |
| 2026-05-06 09:58 | 40.08348 | 116.61284 | 123 ft | 15 kts | 324° |
| 2026-05-06 09:58 | 40.08400 | 116.61202 | 127 ft | 11 kts | 280° |
| 2026-05-06 09:59 | 40.08395 | 116.61101 | 125 ft | 11 kts | 264° |
| 2026-05-06 09:59 | 40.08350 | 116.61035 | 126 ft | 11 kts | 187° |
| 2026-05-06 09:59 | 40.08293 | 116.60979 | 126 ft | 11 kts | 250° |
| 2026-05-06 09:59 | 40.08280 | 116.60863 | 124 ft | 17 kts | 263° |
| 2026-05-06 10:00 | 40.08263 | 116.60685 | 126 ft | 21 kts | 263° |
| 2026-05-06 10:00 | 40.08246 | 116.60494 | 126 ft | 21 kts | 263° |
| 2026-05-06 10:00 | 40.08228 | 116.60304 | 126 ft | 21 kts | 263° |
| 2026-05-06 10:00 | 40.08211 | 116.60122 | 125 ft | 18 kts | 263° |
| 2026-05-06 10:01 | 40.08196 | 116.59991 | 127 ft | 11 kts | 249° |
| 2026-05-06 10:01 | 40.08129 | 116.59962 | 126 ft | 11 kts | 176° |
| 2026-05-06 10:01 | 40.08025 | 116.59977 | 125 ft | 20 kts | 173° |
| 2026-05-06 10:01 | 40.07874 | 116.60001 | 126 ft | 22 kts | 173° |
| 2026-05-06 10:02 | 40.07721 | 116.60025 | 126 ft | 22 kts | 173° |
| 2026-05-06 10:02 | 40.07568 | 116.60049 | 123 ft | 22 kts | 173° |
| 2026-05-06 10:02 | 40.07459 | 116.60066 | 125 ft | 10 kts | 173° |
| 2026-05-06 10:02 | 40.07427 | 116.60071 | 123 ft | 0 kts | 173° |
| 2026-05-06 10:03 | 40.07419 | 116.60072 | 125 ft | 5 kts | 173° |
| 2026-05-06 10:03 | 40.07385 | 116.60077 | 126 ft | 5 kts | 173° |
| 2026-05-06 10:04 | 40.07351 | 116.60082 | 124 ft | 5 kts | 173° |
| 2026-05-06 10:04 | 40.07319 | 116.60087 | 125 ft | 8 kts | 173° |
| 2026-05-06 10:04 | 40.07260 | 116.60102 | 125 ft | 9 kts | 153° |
| 2026-05-06 10:04 | 40.07241 | 116.60178 | 128 ft | 10 kts | 88° |
| 2026-05-06 10:05 | 40.07249 | 116.60277 | 128 ft | 12 kts | 83° |
| 2026-05-06 10:05 | 40.07232 | 116.60360 | 123 ft | 10 kts | 148° |
| 2026-05-06 10:05 | 40.07158 | 116.60378 | 126 ft | 12 kts | 173° |
| 2026-05-06 10:05 | 40.07092 | 116.60393 | 125 ft | 6 kts | 152° |
| 2026-05-06 10:06 | 40.07077 | 116.60438 | 125 ft | 5 kts | 99° |
| 2026-05-06 10:06 | 40.07079 | 116.60477 | 125 ft | 4 kts | 83° |
| 2026-05-06 10:06 | 40.07082 | 116.60506 | 125 ft | 3 kts | 83° |
| 2026-05-06 10:06 | 40.07082 | 116.60513 | 125 ft | 0 kts | 83° |